Time;durP1;ratioP1;P1;durP2;ratioP2;P2;SDS_P1;SDS_P2;PMS_P1;PMS_P2;Temp;Humidity;BMP_temperature;BMP_pressure;BME280_temperature;BME280_humidity;BME280_pressure;Samples;Min_cycle;Max_cycle;Signal;HPM_P1;HPM_P2
2022/03/07 00:00:56;;;;;;;3.47;3.20;;;4.40;56.80;;;;;;6066840;23;20421;-85
2022/03/07 00:03:25;;;;;;;4.63;3.60;;;4.30;56.70;;;;;;6094273;23;20412;-83
2022/03/07 00:05:52;;;;;;;4.20;3.80;;;4.40;56.70;;;;;;6072756;23;20413;-83
2022/03/07 00:08:25;;;;;;;4.63;4.03;;;4.30;56.90;;;;;;6095896;23;20457;-83
2022/03/07 00:11:02;;;;;;;4.17;3.87;;;4.50;56.70;;;;;;6095667;23;20848;-84
2022/03/07 00:13:29;;;;;;;4.30;3.90;;;4.50;56.60;;;;;;6093205;23;20460;-83
2022/03/07 00:15:56;;;;;;;4.93;3.90;;;4.60;56.50;;;;;;6087824;23;20412;-83
2022/03/07 00:18:23;;;;;;;6.67;4.20;;;4.50;56.50;;;;;;6058752;23;20434;-84
2022/03/07 00:20:50;;;;;;;4.47;4.13;;;4.60;56.70;;;;;;6064075;23;20436;-84
2022/03/07 00:23:16;;;;;;;4.37;3.97;;;4.60;56.70;;;;;;6097516;23;21162;-85
2022/03/07 00:25:43;;;;;;;4.93;4.27;;;4.60;57.20;;;;;;6096186;23;20469;-83
2022/03/07 00:28:10;;;;;;;4.03;3.73;;;4.50;57.30;;;;;;6070382;23;20508;-85
2022/03/07 00:30:37;;;;;;;3.87;3.40;;;4.40;57.80;;;;;;6069739;23;20433;-82
2022/03/07 00:33:05;;;;;;;4.23;3.77;;;4.60;58.00;;;;;;6059607;23;20475;-82
2022/03/07 00:35:31;;;;;;;5.47;3.80;;;4.50;57.40;;;;;;6059869;23;20642;-83
2022/03/07 00:37:58;;;;;;;4.40;3.57;;;4.50;57.30;;;;;;6084332;23;21075;-83
2022/03/07 00:40:25;;;;;;;4.07;3.77;;;4.60;57.10;;;;;;6089467;23;20441;-85
2022/03/07 00:42:51;;;;;;;3.97;3.60;;;4.60;56.70;;;;;;6082384;23;20856;-83
2022/03/07 00:45:18;;;;;;;4.33;3.93;;;4.60;56.70;;;;;;6105460;23;20743;-84
2022/03/07 00:47:45;;;;;;;4.17;3.80;;;4.50;56.70;;;;;;6104577;23;21089;-87
2022/03/07 00:50:12;;;;;;;3.83;3.60;;;4.50;56.90;;;;;;6077959;23;20413;-83
2022/03/07 00:52:39;;;;;;;6.50;3.90;;;4.40;57.10;;;;;;6073068;23;20424;-84
2022/03/07 00:55:07;;;;;;;4.83;4.43;;;4.50;57.50;;;;;;6072681;23;20420;-83
2022/03/07 00:57:34;;;;;;;6.27;4.87;;;4.40;57.60;;;;;;6101759;23;20768;-83
2022/03/07 01:00:00;;;;;;;5.50;4.13;;;4.60;57.40;;;;;;6085151;23;20507;-83
2022/03/07 01:02:27;;;;;;;5.30;4.60;;;4.60;57.40;;;;;;6059609;23;20459;-86
2022/03/07 01:04:55;;;;;;;5.30;4.07;;;4.40;57.60;;;;;;6059273;23;20491;-84
2022/03/07 01:07:22;;;;;;;4.73;4.27;;;4.30;58.00;;;;;;6059276;23;20412;-84
2022/03/07 01:09:50;;;;;;;5.20;4.70;;;4.30;58.60;;;;;;6090017;23;20451;-84
2022/03/07 01:12:16;;;;;;;5.17;4.77;;;4.50;59.20;;;;;;6097450;23;20443;-84
2022/03/07 01:14:43;;;;;;;5.40;4.90;;;4.50;59.10;;;;;;6069694;23;21059;-84
2022/03/07 01:17:10;;;;;;;5.90;5.30;;;4.40;59.00;;;;;;6069407;23;20424;-83
2022/03/07 01:19:37;;;;;;;5.77;5.23;;;4.50;59.30;;;;;;6071963;23;20849;-83
2022/03/07 01:22:03;;;;;;;5.60;5.10;;;4.60;59.10;;;;;;6097078;23;20439;-84
2022/03/07 01:24:30;;;;;;;5.67;5.03;;;4.50;59.10;;;;;;6070038;23;20431;-84
2022/03/07 01:26:58;;;;;;;7.23;5.33;;;4.80;59.20;;;;;;6098530;23;20420;-83
2022/03/07 01:29:29;;;;;;;5.60;5.10;;;4.90;58.00;;;;;;6072324;23;20447;-83
2022/03/07 01:31:55;;;;;;;4.73;4.33;;;4.70;57.60;;;;;;6098892;23;20460;-85
2022/03/07 01:34:22;;;;;;;4.97;4.57;;;4.40;57.90;;;;;;6098618;23;20420;-85
2022/03/07 01:36:49;;;;;;;5.40;4.50;;;4.30;58.40;;;;;;6099334;23;20397;-85
2022/03/07 01:39:15;;;;;;;6.20;4.30;;;4.30;58.80;;;;;;6074505;23;20730;-85
2022/03/07 01:41:43;;;;;;;5.20;4.70;;;4.60;58.80;;;;;;6102523;23;20437;-86
2022/03/07 01:44:21;;;;;;;4.67;4.30;;;4.40;58.40;;;;;;6118622;23;20393;-84
2022/03/07 01:46:48;;;;;;;5.73;4.53;;;4.40;58.30;;;;;;6106354;23;20416;-85
2022/03/07 01:49:15;;;;;;;4.40;4.00;;;4.40;58.30;;;;;;6079095;23;20443;-85
2022/03/07 01:51:44;;;;;;;5.00;4.40;;;4.50;58.40;;;;;;6104349;23;20480;-85
2022/03/07 01:54:14;;;;;;;4.00;3.70;;;4.70;58.30;;;;;;6078560;23;20413;-85
2022/03/07 01:56:47;;;;;;;4.47;4.13;;;4.60;58.00;;;;;;6101626;23;20405;-86
2022/03/07 01:59:19;;;;;;;4.57;4.13;;;4.60;57.90;;;;;;6076725;23;20487;-85
2022/03/07 02:01:47;;;;;;;5.13;4.63;;;4.60;57.80;;;;;;6068919;23;21293;-85
2022/03/07 02:04:15;;;;;;;5.33;4.83;;;4.60;57.60;;;;;;6092782;23;20938;-82
2022/03/07 02:06:43;;;;;;;4.43;4.03;;;4.60;58.00;;;;;;6066864;23;20487;-83
2022/03/07 02:09:11;;;;;;;4.80;4.40;;;4.40;58.00;;;;;;6065852;23;20444;-84
2022/03/07 02:11:38;;;;;;;5.37;4.87;;;4.40;58.30;;;;;;6076282;23;20439;-85
2022/03/07 02:14:22;;;;;;;4.53;4.00;;;4.30;58.50;;;;;;6104356;23;20413;-85
2022/03/07 02:16:50;;;;;;;4.47;4.17;;;4.30;58.50;;;;;;6103621;23;20388;-84
2022/03/07 02:19:18;;;;;;;5.23;3.93;;;4.40;58.20;;;;;;6079065;23;20420;-86
2022/03/07 02:21:52;;;;;;;4.00;3.70;;;4.20;58.00;;;;;;6078727;23;20439;-84
2022/03/07 02:24:19;;;;;;;4.63;4.20;;;4.30;58.50;;;;;;6078582;23;20547;-85
2022/03/07 02:27:07;;;;;;;4.40;4.00;;;4.20;58.50;;;;;;6078638;23;20420;-84
2022/03/07 02:29:38;;;;;;;4.70;3.53;;;4.10;58.60;;;;;;6104640;23;21258;-83
2022/03/07 02:32:06;;;;;;;4.10;3.70;;;4.10;59.00;;;;;;6105574;23;20445;-85
2022/03/07 02:34:33;;;;;;;5.10;4.70;;;4.00;59.20;;;;;;6104554;23;20409;-85
2022/03/07 02:37:01;;;;;;;3.93;3.53;;;3.90;59.40;;;;;;6111770;23;20408;-85
2022/03/07 02:39:28;;;;;;;4.87;4.20;;;4.00;59.70;;;;;;6107072;23;20413;-85
2022/03/07 02:41:55;;;;;;;5.40;4.10;;;4.00;59.70;;;;;;6091095;23;20726;-84
2022/03/07 02:44:23;;;;;;;4.10;3.80;;;3.90;59.80;;;;;;6089451;23;20420;-84
2022/03/07 02:46:50;;;;;;;4.40;4.00;;;3.90;60.00;;;;;;6077804;23;20419;-84
2022/03/07 02:49:18;;;;;;;4.90;4.17;;;4.00;60.20;;;;;;6076933;23;20448;-84
2022/03/07 02:51:45;;;;;;;6.00;4.20;;;4.00;60.30;;;;;;6077724;23;20940;-84
2022/03/07 02:54:12;;;;;;;4.10;3.63;;;4.00;59.70;;;;;;6077241;23;20495;-84
2022/03/07 02:56:38;;;;;;;4.30;3.90;;;4.00;59.20;;;;;;6079032;23;20412;-83
2022/03/07 02:59:05;;;;;;;5.53;4.97;;;3.80;59.20;;;;;;6115140;23;20404;-84
2022/03/07 03:01:32;;;;;;;4.30;3.60;;;3.70;59.70;;;;;;6096547;23;20776;-86
2022/03/07 03:03:59;;;;;;;3.47;3.20;;;3.80;60.30;;;;;;6096935;23;20411;-86
2022/03/07 03:06:26;;;;;;;4.33;3.80;;;3.70;60.00;;;;;;6093330;23;20417;-85
2022/03/07 03:08:54;;;;;;;4.23;3.83;;;3.60;60.30;;;;;;6080120;23;20982;-84
2022/03/07 03:11:21;;;;;;;4.50;3.77;;;3.60;60.80;;;;;;6083020;23;20501;-85
2022/03/07 03:13:51;;;;;;;4.10;3.73;;;3.60;60.30;;;;;;6088588;23;20423;-85
2022/03/07 03:16:17;;;;;;;3.87;3.33;;;3.60;60.50;;;;;;6075649;23;20438;-83
2022/03/07 03:18:45;;;;;;;3.90;3.60;;;3.60;60.30;;;;;;6073245;23;20425;-84
2022/03/07 03:21:11;;;;;;;4.30;3.90;;;3.60;60.50;;;;;;6073715;23;20570;-84
2022/03/07 03:23:38;;;;;;;3.57;3.30;;;3.60;60.50;;;;;;6078187;23;20420;-85
2022/03/07 03:26:05;;;;;;;4.30;3.90;;;3.50;60.60;;;;;;6091732;23;20439;-85
2022/03/07 03:28:32;;;;;;;3.97;3.30;;;3.50;61.20;;;;;;6122096;23;20500;-85
2022/03/07 03:30:59;;;;;;;4.70;3.40;;;3.50;61.00;;;;;;6094765;23;20479;-84
2022/03/07 03:33:25;;;;;;;3.80;3.50;;;3.50;60.90;;;;;;6116354;23;20417;-83
2022/03/07 03:35:52;;;;;;;3.53;3.30;;;3.30;61.30;;;;;;6073267;23;20582;-84
2022/03/07 03:38:20;;;;;;;3.53;3.23;;;3.30;61.70;;;;;;6074971;23;20412;-85
2022/03/07 03:40:47;;;;;;;4.20;3.80;;;3.30;62.50;;;;;;6083584;23;20501;-83
2022/03/07 03:43:14;;;;;;;3.63;3.30;;;3.30;61.80;;;;;;6075047;23;20471;-85
2022/03/07 03:45:41;;;;;;;3.63;3.43;;;3.30;61.70;;;;;;6073732;23;20412;-82
2022/03/07 03:48:08;;;;;;;4.10;3.30;;;3.30;61.60;;;;;;6097645;23;20412;-83
2022/03/07 03:50:35;;;;;;;3.50;3.20;;;3.30;61.80;;;;;;6072631;23;20484;-84
2022/03/07 03:53:02;;;;;;;3.70;3.40;;;3.20;62.20;;;;;;6108753;23;20436;-84
2022/03/07 03:55:29;;;;;;;4.13;3.57;;;3.20;62.40;;;;;;6112195;23;20433;-83
2022/03/07 03:57:57;;;;;;;4.03;2.90;;;3.10;62.50;;;;;;6088725;23;20397;-83
2022/03/07 04:00:24;;;;;;;4.20;3.07;;;3.10;62.50;;;;;;6089827;23;20408;-83
2022/03/07 04:02:51;;;;;;;3.30;3.10;;;3.10;62.00;;;;;;6099051;23;20445;-85
2022/03/07 04:05:19;;;;;;;3.60;3.40;;;3.10;62.50;;;;;;6097785;23;20393;-86
2022/03/07 04:07:47;;;;;;;3.67;3.37;;;3.10;62.00;;;;;;6092804;23;20413;-85
2022/03/07 04:10:14;;;;;;;2.97;2.67;;;3.10;62.30;;;;;;6096030;23;20479;-85
2022/03/07 04:12:42;;;;;;;3.07;2.80;;;3.20;62.30;;;;;;6098454;23;20475;-85
2022/03/07 04:15:10;;;;;;;2.47;2.20;;;3.10;62.40;;;;;;6095170;23;20495;-84
2022/03/07 04:17:42;;;;;;;3.10;2.77;;;3.20;62.90;;;;;;6096274;23;20408;-82
2022/03/07 04:20:10;;;;;;;3.10;2.90;;;3.10;61.80;;;;;;6092824;23;20405;-85
2022/03/07 04:22:39;;;;;;;3.10;2.90;;;3.00;62.30;;;;;;6109473;23;20413;-85
2022/03/07 04:25:14;;;;;;;3.40;3.20;;;3.10;62.50;;;;;;6081713;23;20467;-85
2022/03/07 04:27:53;;;;;;;3.67;3.37;;;3.10;62.50;;;;;;6079533;23;20507;-85
2022/03/07 04:30:25;;;;;;;3.50;3.20;;;3.00;61.90;;;;;;6101387;23;20455;-84
2022/03/07 04:33:15;;;;;;;;;;;;;;;;;;;;;
2022/03/07 04:36:05;;;;;;;4.60;3.40;;;3.10;63.00;;;;;;6103621;23;20417;-86
2022/03/07 04:38:44;;;;;;;3.63;3.33;;;3.10;62.90;;;;;;6077755;23;20420;-86
2022/03/07 04:41:19;;;;;;;3.93;3.47;;;3.00;63.20;;;;;;6075811;23;20432;-86
2022/03/07 04:44:17;;;;;;;4.77;3.57;;;3.00;63.80;;;;;;6078951;23;20427;-84
2022/03/07 04:47:04;;;;;;;3.30;3.00;;;3.10;63.90;;;;;;6102473;23;20416;-84
2022/03/07 04:50:12;;;;;;;4.03;3.57;;;3.20;62.80;;;;;;6098576;23;20444;-84
2022/03/07 04:52:56;;;;;;;3.50;3.20;;;3.20;63.20;;;;;;6077887;23;20436;-84
2022/03/07 04:55:28;;;;;;;4.90;4.03;;;3.10;63.20;;;;;;6073778;23;20483;-83
2022/03/07 04:58:16;;;;;;;4.33;3.40;;;3.10;63.30;;;;;;6074091;23;20797;-84
2022/03/07 05:01:14;;;;;;;3.93;3.53;;;3.00;64.10;;;;;;6077462;23;20440;-85
2022/03/07 05:04:03;;;;;;;3.53;3.23;;;2.90;65.00;;;;;;6076069;23;20427;-82
2022/03/07 05:06:41;;;;;;;2.87;2.67;;;2.90;65.70;;;;;;6074046;23;20417;-84
2022/03/07 05:09:19;;;;;;;3.70;3.40;;;3.10;65.50;;;;;;6073788;23;20452;-84
2022/03/07 05:12:06;;;;;;;4.13;3.83;;;3.10;64.70;;;;;;6099224;23;20420;-86
2022/03/07 05:14:57;;;;;;;3.77;3.47;;;3.20;64.80;;;;;;6090542;23;20416;-82
2022/03/07 05:17:54;;;;;;;3.27;2.97;;;3.10;65.00;;;;;;6064422;23;20401;-84
2022/03/07 05:20:40;;;;;;;4.50;3.80;;;3.20;65.30;;;;;;6097657;23;20432;-86
2022/03/07 05:24:07;;;;;;;4.20;3.77;;;3.30;64.80;;;;;;6072978;23;20896;-84
2022/03/07 05:26:54;;;;;;;4.33;3.70;;;3.20;64.90;;;;;;6078261;23;20468;-85
2022/03/07 05:30:07;;;;;;;4.00;3.50;;;3.10;65.10;;;;;;6077998;23;20503;-85
2022/03/07 05:33:00;;;;;;;3.60;3.30;;;3.10;65.40;;;;;;6075797;23;20396;-84
2022/03/07 05:35:59;;;;;;;3.40;3.20;;;3.10;66.00;;;;;;6076508;23;20421;-83
2022/03/07 05:38:34;;;;;;;6.43;4.33;;;3.40;64.80;;;;;;6076146;23;20436;-85
2022/03/07 05:41:17;;;;;;;3.53;3.23;;;3.20;64.10;;;;;;6078431;23;20527;-87
2022/03/07 05:44:04;;;;;;;4.70;3.97;;;3.20;64.50;;;;;;6079628;23;20433;-83
2022/03/07 05:46:37;;;;;;;4.20;3.80;;;3.20;65.20;;;;;;6078690;23;20418;-84
2022/03/07 05:49:07;;;;;;;3.97;3.17;;;3.10;65.60;;;;;;6079494;23;20423;-86
2022/03/07 05:51:37;;;;;;;4.57;4.20;;;3.00;66.10;;;;;;6104895;23;20432;-86
2022/03/07 05:54:15;;;;;;;3.83;3.33;;;3.00;66.50;;;;;;6079784;23;20423;-86
2022/03/07 05:56:53;;;;;;;4.00;3.40;;;3.00;66.70;;;;;;6081153;23;20408;-86
2022/03/07 05:59:30;;;;;;;6.90;4.00;;;3.20;66.50;;;;;;6082809;23;20432;-85
2022/03/07 06:02:17;;;;;;;3.53;3.33;;;3.30;65.40;;;;;;6120952;23;20440;-84
2022/03/07 06:05:00;;;;;;;4.33;4.00;;;3.20;64.90;;;;;;6089872;23;20407;-84
2022/03/07 06:08:06;;;;;;;3.60;3.30;;;3.20;65.30;;;;;;6124200;23;20428;-85
2022/03/07 06:10:52;;;;;;;3.50;3.20;;;3.30;64.90;;;;;;6094465;23;20440;-85
2022/03/07 06:13:46;;;;;;;3.77;3.47;;;3.10;64.20;;;;;;5983661;23;20399;-86
2022/03/07 06:17:09;;;;;;;;;;;;;;;;;;;;;
2022/03/07 06:20:03;;;;;;;3.53;3.23;;;3.20;64.50;;;;;;5982543;24;20412;-85
2022/03/07 06:22:50;;;;;;;3.30;2.80;;;3.30;64.10;;;;;;5982944;24;20457;-85
2022/03/07 06:25:37;;;;;;;6.47;3.93;;;3.30;64.10;;;;;;5987849;24;20511;-83
2022/03/07 06:28:26;;;;;;;4.27;3.90;;;3.20;64.40;;;;;;5993786;24;20531;-85
2022/03/07 06:36:54;;;;;;;3.90;3.60;;;3.30;65.40;;;;;;6105423;23;20424;-86
2022/03/07 06:39:52;;;;;;;5.10;4.23;;;3.30;65.10;;;;;;6106780;23;20496;-86
2022/03/07 06:43:17;;;;;;;4.33;3.77;;;3.30;64.40;;;;;;6095435;23;20889;-84
2022/03/07 06:46:28;;;;;;;4.07;3.63;;;3.50;64.20;;;;;;6092757;23;20428;-84
2022/03/07 06:49:58;;;;;;;4.83;3.90;;;3.50;64.50;;;;;;6090546;23;20431;-83
2022/03/07 06:53:36;;;;;;;;;;;;;;;;;;;;;
2022/03/07 06:56:43;;;;;;;5.33;3.90;;;3.40;63.70;;;;;;6102169;23;20408;-83
2022/03/07 07:00:04;;;;;;;3.77;3.53;;;3.60;64.10;;;;;;6058232;23;20423;-84
2022/03/07 07:03:15;;;;;;;4.50;3.87;;;3.60;63.90;;;;;;6070054;23;20424;-83
2022/03/07 07:06:05;;;;;;;5.30;4.73;;;3.60;63.80;;;;;;6070430;23;20412;-85
2022/03/07 07:08:53;;;;;;;4.67;4.37;;;3.80;63.20;;;;;;6081355;23;20447;-84
2022/03/07 07:12:02;;;;;;;;;;;;;;;;;;;;;
2022/03/07 07:15:13;;;;;;;3.83;3.53;;;3.90;63.50;;;;;;6110867;23;20421;-83
2022/03/07 07:18:12;;;;;;;6.20;5.00;;;4.00;62.50;;;;;;6116444;23;20416;-84
2022/03/07 07:21:08;;;;;;;4.50;4.10;;;4.10;63.10;;;;;;6113083;23;20441;-83
2022/03/07 07:24:33;;;;;;;;;;;;;;;;;;;;;
2022/03/07 07:27:51;;;;;;;7.13;4.33;;;4.10;62.20;;;;;;6081518;23;20409;-84
2022/03/07 07:30:24;;;;;;;4.67;4.33;;;4.10;61.90;;;;;;6070480;23;20445;-83
2022/03/07 07:33:17;;;;;;;5.17;4.67;;;4.20;62.10;;;;;;6086348;23;20404;-84
2022/03/07 07:35:55;;;;;;;4.90;4.40;;;4.50;61.30;;;;;;6076367;23;20420;-85
2022/03/07 07:39:02;;;;;;;;;;;;;;;;;;;;;
2022/03/07 07:42:02;;;;;;;4.20;3.80;;;4.80;59.30;;;;;;6099499;23;20440;-84
2022/03/07 07:48:07;;;;;;;4.70;4.20;;;4.70;58.80;;;;;;6095060;23;20420;-85
2022/03/07 07:55:09;;;;;;;4.77;4.37;;;4.70;58.70;;;;;;5961271;24;20440;-86
2022/03/07 07:57:51;;;;;;;4.83;4.43;;;4.80;58.60;;;;;;5998537;23;20416;-83
2022/03/07 08:01:08;;;;;;;4.30;3.90;;;4.80;58.70;;;;;;6080173;23;20476;-83
2022/03/07 08:04:08;;;;;;;4.63;4.23;;;4.90;58.90;;;;;;6078982;23;20518;-84
2022/03/07 08:06:37;;;;;;;3.97;3.67;;;5.00;58.70;;;;;;6099998;23;20873;-82
2022/03/07 08:09:18;;;;;;;5.80;4.27;;;5.20;58.10;;;;;;6099963;23;20440;-83
2022/03/07 08:11:50;;;;;;;4.20;3.80;;;5.40;57.70;;;;;;6074271;23;20463;-81
2022/03/07 08:14:18;;;;;;;4.07;3.77;;;5.80;57.50;;;;;;6099180;23;20409;-83
2022/03/07 08:16:49;;;;;;;4.40;4.00;;;5.90;56.60;;;;;;6075983;23;20423;-85
2022/03/07 08:19:19;;;;;;;5.00;4.60;;;6.00;55.90;;;;;;6073074;23;20424;-85
2022/03/07 08:22:03;;;;;;;3.90;3.60;;;6.10;55.20;;;;;;6095087;23;20428;-85
2022/03/07 08:24:32;;;;;;;6.87;5.70;;;6.20;55.10;;;;;;6070258;23;20883;-84
2022/03/07 08:27:02;;;;;;;5.43;3.83;;;6.00;54.60;;;;;;6069603;23;20417;-80
2022/03/07 08:29:41;;;;;;;5.63;4.50;;;5.90;55.50;;;;;;6071104;23;20991;-87
2022/03/07 08:32:08;;;;;;;4.67;4.27;;;6.00;54.90;;;;;;6074614;23;20464;-85
2022/03/07 08:34:38;;;;;;;3.73;3.43;;;6.10;55.00;;;;;;6072886;23;20926;-86
2022/03/07 08:37:05;;;;;;;4.40;4.00;;;6.30;54.70;;;;;;6097629;23;20453;-85
2022/03/07 08:39:31;;;;;;;4.70;4.20;;;6.20;54.30;;;;;;6071590;23;20409;-85
2022/03/07 08:41:58;;;;;;;3.77;3.57;;;6.20;54.60;;;;;;6069558;23;20517;-84
2022/03/07 08:44:27;;;;;;;4.07;3.77;;;6.30;54.90;;;;;;6061823;23;21046;-84
2022/03/07 08:47:20;;;;;;;5.20;4.30;;;5.90;54.10;;;;;;6087107;23;20404;-84
2022/03/07 08:49:53;;;;;;;4.13;3.83;;;5.60;54.40;;;;;;6097989;23;20385;-83
2022/03/07 08:52:31;;;;;;;4.37;4.07;;;5.60;54.40;;;;;;6081792;23;20429;-85
2022/03/07 08:55:00;;;;;;;4.10;3.80;;;5.30;54.80;;;;;;6065386;23;21099;-85
2022/03/07 08:57:27;;;;;;;3.30;3.10;;;5.30;55.80;;;;;;6090750;23;20412;-86
2022/03/07 09:00:07;;;;;;;4.33;3.80;;;5.10;55.50;;;;;;6063304;23;20489;-83
2022/03/07 09:02:44;;;;;;;4.60;4.20;;;4.90;56.20;;;;;;6064822;23;20434;-84
2022/03/07 09:05:28;;;;;;;4.03;3.70;;;5.00;56.90;;;;;;6042728;23;20483;-85
2022/03/07 09:07:55;;;;;;;3.90;3.47;;;5.30;56.70;;;;;;6086713;23;20507;-85
2022/03/07 09:10:34;;;;;;;6.17;4.50;;;5.30;55.60;;;;;;6088154;23;20444;-83
2022/03/07 09:13:04;;;;;;;5.07;3.40;;;5.30;55.40;;;;;;6063544;23;20393;-81
2022/03/07 09:15:33;;;;;;;3.97;3.67;;;5.40;56.40;;;;;;6063820;23;20420;-84
2022/03/07 09:18:03;;;;;;;4.70;4.20;;;5.40;55.80;;;;;;6088896;23;20417;-84
2022/03/07 09:20:29;;;;;;;3.17;2.93;;;5.50;55.60;;;;;;6087434;23;20539;-84
2022/03/07 09:23:03;;;;;;;3.90;3.50;;;5.50;55.60;;;;;;6073681;23;20424;-83
2022/03/07 09:25:39;;;;;;;4.20;3.77;;;5.30;55.60;;;;;;6068895;23;20412;-85
2022/03/07 09:28:22;;;;;;;3.30;3.00;;;5.30;55.30;;;;;;6044792;23;20415;-85
2022/03/07 09:31:01;;;;;;;4.50;3.50;;;5.50;55.70;;;;;;6089241;23;20785;-85
2022/03/07 09:33:41;;;;;;;3.40;3.10;;;5.40;55.30;;;;;;6063840;23;20416;-83
2022/03/07 09:36:24;;;;;;;3.37;3.03;;;5.40;55.60;;;;;;6064323;23;20944;-82
2022/03/07 09:38:52;;;;;;;4.67;4.30;;;5.50;56.00;;;;;;6061566;23;20951;-85
2022/03/07 09:41:33;;;;;;;4.13;3.73;;;5.70;55.80;;;;;;6063989;23;20436;-83
2022/03/07 09:44:23;;;;;;;3.57;3.27;;;5.60;55.40;;;;;;6064226;23;20425;-83
2022/03/07 09:47:00;;;;;;;4.63;4.23;;;5.70;56.30;;;;;;6062194;23;20460;-84
2022/03/07 09:49:33;;;;;;;3.87;3.57;;;5.90;55.80;;;;;;6061971;23;20789;-85
2022/03/07 09:52:03;;;;;;;3.50;3.23;;;5.80;55.60;;;;;;6064381;23;20452;-84
2022/03/07 09:54:38;;;;;;;3.97;3.63;;;5.80;55.60;;;;;;6064738;23;20753;-84
2022/03/07 09:57:10;;;;;;;5.30;4.13;;;5.90;55.20;;;;;;6061687;23;20408;-85
2022/03/07 09:59:56;;;;;;;3.77;3.40;;;6.20;55.30;;;;;;6060360;23;20911;-84
2022/03/07 10:02:26;;;;;;;3.97;3.57;;;7.60;53.50;;;;;;6087311;23;20535;-85
2022/03/07 10:05:13;;;;;;;4.97;3.10;;;9.30;50.70;;;;;;6062996;23;20419;-85
2022/03/07 10:07:48;;;;;;;3.73;3.40;;;10.30;46.90;;;;;;6066909;23;20409;-86
2022/03/07 10:10:21;;;;;;;3.43;3.23;;;11.70;44.70;;;;;;6095918;23;20761;-85
2022/03/07 10:13:05;;;;;;;4.03;3.33;;;12.50;41.20;;;;;;6074513;23;20436;-85
2022/03/07 10:15:42;;;;;;;3.50;3.20;;;12.70;40.60;;;;;;6112859;23;20416;-86
2022/03/07 10:18:32;;;;;;;4.30;3.90;;;13.10;39.60;;;;;;6076382;23;20396;-84
2022/03/07 10:21:24;;;;;;;5.00;4.50;;;12.90;39.20;;;;;;6064188;23;20447;-82
2022/03/07 10:24:01;;;;;;;4.73;4.33;;;13.40;39.10;;;;;;6065835;23;20565;-84
2022/03/07 10:26:40;;;;;;;4.60;4.17;;;13.50;37.60;;;;;;6082871;23;20495;-83
2022/03/07 10:29:24;;;;;;;3.93;3.53;;;12.60;37.90;;;;;;6066898;23;20427;-83
2022/03/07 10:32:03;;;;;;;4.20;3.87;;;11.00;39.40;;;;;;6087125;23;20820;-85
2022/03/07 10:34:41;;;;;;;4.47;4.07;;;10.20;41.90;;;;;;6088838;23;20431;-86
2022/03/07 10:37:15;;;;;;;3.90;3.60;;;9.50;44.00;;;;;;6067726;23;20432;-84
2022/03/07 10:40:15;;;;;;;4.30;4.00;;;9.10;45.30;;;;;;6066884;23;20420;-85
2022/03/07 10:42:53;;;;;;;3.90;3.60;;;8.70;46.00;;;;;;6064970;23;20499;-85
2022/03/07 10:45:33;;;;;;;3.60;3.20;;;8.60;46.80;;;;;;6065176;23;20423;-82
2022/03/07 10:48:06;;;;;;;4.20;3.80;;;8.50;46.70;;;;;;6089452;23;20424;-86
2022/03/07 10:50:42;;;;;;;5.17;3.30;;;8.30;47.10;;;;;;6065649;23;20448;-85
2022/03/07 10:53:15;;;;;;;3.87;2.47;;;8.10;47.70;;;;;;6065839;23;20491;-82
2022/03/07 10:56:04;;;;;;;4.03;3.70;;;7.90;48.20;;;;;;6090973;23;20504;-84
2022/03/07 10:58:50;;;;;;;4.10;3.53;;;7.80;48.30;;;;;;6063341;23;20543;-82
2022/03/07 11:01:30;;;;;;;3.40;3.10;;;7.70;48.50;;;;;;6062595;23;21035;-83
2022/03/07 11:04:03;;;;;;;3.53;3.23;;;7.70;49.00;;;;;;6074897;23;20429;-84
2022/03/07 11:06:41;;;;;;;3.67;3.37;;;7.90;50.30;;;;;;6076798;23;20496;-84
2022/03/07 11:09:18;;;;;;;3.20;2.70;;;7.80;49.20;;;;;;6074705;23;20444;-85
2022/03/07 11:11:52;;;;;;;2.97;2.77;;;7.80;48.90;;;;;;6074694;23;20452;-84
2022/03/07 11:14:27;;;;;;;3.07;2.87;;;7.70;48.80;;;;;;6076234;23;21263;-84
2022/03/07 11:17:12;;;;;;;3.60;3.20;;;7.50;48.80;;;;;;6117521;23;20421;-83
2022/03/07 11:19:54;;;;;;;2.83;2.63;;;7.50;49.00;;;;;;6096727;23;20420;-84
2022/03/07 11:22:29;;;;;;;3.63;3.33;;;7.70;49.40;;;;;;6103564;23;20448;-85
2022/03/07 11:25:08;;;;;;;3.60;3.30;;;7.70;49.20;;;;;;6101615;23;21058;-85
2022/03/07 11:27:44;;;;;;;3.63;2.93;;;7.80;48.90;;;;;;6098504;23;20417;-84
2022/03/07 11:31:00;;;;;;;2.73;2.53;;;7.90;48.80;;;;;;6106278;23;20388;-84
2022/03/07 11:34:07;;;;;;;3.60;3.20;;;8.00;49.10;;;;;;6051559;23;20504;-85
2022/03/07 11:36:49;;;;;;;3.53;3.23;;;7.90;48.80;;;;;;6102468;23;20413;-85
2022/03/07 11:39:30;;;;;;;3.40;3.10;;;8.00;49.20;;;;;;6078337;23;20469;-83
2022/03/07 11:42:19;;;;;;;3.93;3.63;;;8.00;48.60;;;;;;6083590;23;20440;-83
2022/03/07 11:44:48;;;;;;;3.70;3.50;;;7.90;49.30;;;;;;6091427;23;20393;-84
2022/03/07 11:47:23;;;;;;;2.80;2.53;;;8.10;49.50;;;;;;6081915;23;20895;-85
2022/03/07 11:50:04;;;;;;;4.07;3.20;;;8.30;48.40;;;;;;6078521;23;20405;-84
2022/03/07 11:52:37;;;;;;;3.40;3.07;;;8.20;48.00;;;;;;6086322;23;20803;-86
2022/03/07 11:55:21;;;;;;;4.03;2.60;;;8.00;48.30;;;;;;6084207;23;20495;-84
2022/03/07 12:01:23;;;;;;;3.60;3.13;;;8.00;48.30;;;;;;6093589;23;20488;-86
2022/03/07 12:04:18;;;;;;;2.80;2.60;;;8.10;48.60;;;;;;6069939;23;20421;-86
2022/03/07 12:06:51;;;;;;;3.50;3.00;;;8.20;48.30;;;;;;6098954;23;20404;-86
2022/03/07 12:09:33;;;;;;;3.97;3.60;;;8.10;48.10;;;;;;6072565;23;20413;-83
2022/03/07 12:12:09;;;;;;;3.27;2.97;;;8.20;48.00;;;;;;6074771;23;20539;-86
2022/03/07 12:14:53;;;;;;;2.90;2.70;;;8.10;48.00;;;;;;6074735;23;20405;-85
2022/03/07 12:17:26;;;;;;;4.77;4.20;;;8.20;47.60;;;;;;6099790;23;20488;-85
2022/03/07 12:20:06;;;;;;;9.77;3.43;;;8.50;47.40;;;;;;6075926;23;21029;-85
2022/03/07 12:22:51;;;;;;;3.90;3.00;;;8.40;47.40;;;;;;6097663;23;20416;-85
2022/03/07 12:25:23;;;;;;;3.50;3.20;;;8.70;47.90;;;;;;6099353;23;20500;-85
2022/03/07 12:28:00;;;;;;;3.30;3.00;;;8.80;48.10;;;;;;6075744;23;20480;-82
2022/03/07 12:30:46;;;;;;;3.67;3.33;;;9.30;47.10;;;;;;6099826;23;20531;-84
2022/03/07 12:33:39;;;;;;;2.83;2.63;;;9.80;46.40;;;;;;6075850;23;20414;-85
2022/03/07 12:36:34;;;;;;;3.63;3.33;;;10.10;44.70;;;;;;6100549;23;20423;-84
2022/03/07 12:39:38;;;;;;;3.10;2.90;;;10.70;43.50;;;;;;6083123;23;20426;-85
2022/03/07 12:42:38;;;;;;;2.90;2.50;;;11.40;42.50;;;;;;6050183;23;20425;-85
2022/03/07 12:45:36;;;;;;;3.73;2.93;;;11.70;41.20;;;;;;6072567;23;20442;-86
2022/03/07 12:48:46;;;;;;;3.40;3.20;;;10.70;41.00;;;;;;6074783;23;20412;-85
2022/03/07 12:55:06;;;;;;;3.00;2.80;;;11.80;40.00;;;;;;6099892;23;20911;-85
2022/03/07 12:58:03;;;;;;;2.80;2.60;;;12.00;40.30;;;;;;6104793;23;20487;-85
2022/03/07 13:01:24;;;;;;;2.97;2.77;;;11.50;39.70;;;;;;6091555;23;20448;-84
2022/03/07 13:03:40;;;;;;;4.20;2.70;;;11.90;40.20;;;;;;6095057;23;20435;-84
2022/03/07 13:06:30;;;;;;;2.50;2.40;;;11.80;39.70;;;;;;6078871;23;20432;-85
2022/03/07 13:09:12;;;;;;;3.00;2.80;;;12.00;39.40;;;;;;6102549;23;20432;-85
2022/03/07 13:11:53;;;;;;;3.73;3.13;;;12.20;38.90;;;;;;6078778;23;20936;-86
2022/03/07 13:14:49;;;;;;;3.20;3.00;;;12.80;37.90;;;;;;6103544;23;20421;-84
2022/03/07 13:17:28;;;;;;;2.90;2.70;;;12.70;38.10;;;;;;6075257;23;20417;-85
2022/03/07 13:19:55;;;;;;;2.77;2.50;;;13.00;37.20;;;;;;6075061;23;20405;-86
2022/03/07 13:22:30;;;;;;;3.10;2.90;;;12.70;36.60;;;;;;6101660;23;20437;-86
2022/03/07 13:25:14;;;;;;;2.80;2.60;;;12.50;36.60;;;;;;6100647;23;20408;-87
2022/03/07 13:28:01;;;;;;;3.70;2.57;;;12.80;38.10;;;;;;6088747;23;20409;-86
2022/03/07 13:30:54;;;;;;;3.30;2.80;;;13.20;37.40;;;;;;6076640;23;20421;-85
2022/03/07 13:33:42;;;;;;;2.90;1.97;;;13.60;36.20;;;;;;6085167;23;20400;-84
2022/03/07 13:36:47;;;;;;;;;;;;;;;;;;;;;
2022/03/07 13:40:09;;;;;;;2.87;2.40;;;12.40;35.40;;;;;;6100613;23;20447;-85
2022/03/07 13:50:36;;;;;;;;;;;;;;;;;;;;;
2022/03/07 13:53:59;;;;;;;2.70;2.50;;;11.90;35.80;;;;;;6123829;23;20419;-83
2022/03/07 13:57:16;;;;;;;2.53;2.33;;;12.50;35.60;;;;;;6018801;23;20389;-85
2022/03/07 14:00:36;;;;;;;3.63;2.50;;;12.90;34.80;;;;;;6051156;23;20590;-87
2022/03/07 14:03:46;;;;;;;2.57;2.40;;;12.90;35.00;;;;;;6108483;23;20420;-85
2022/03/07 14:11:09;;;;;;;2.93;2.40;;;12.40;35.00;;;;;;6136109;23;20456;-86
2022/03/07 14:14:24;;;;;;;;;;;;;;;;;;;;;
2022/03/07 14:36:10;;;;;;;3.57;2.80;;;10.90;36.20;;;;;;6050254;23;20440;-85
2022/03/07 14:42:27;;;;;;;4.17;2.70;;;10.50;36.40;;;;;;5981446;23;20448;-85
2022/03/07 14:45:24;;;;;;;5.13;2.63;;;10.40;37.40;;;;;;5942081;24;20547;-86
2022/03/07 14:48:24;;;;;;;3.07;2.87;;;10.40;37.50;;;;;;5919037;24;20441;-85
2022/03/07 14:50:56;;;;;;;2.37;2.20;;;10.30;37.40;;;;;;5931447;24;20473;-85
2022/03/07 14:53:25;;;;;;;3.00;2.80;;;10.30;37.90;;;;;;5934513;24;20421;-85
2022/03/07 14:56:03;;;;;;;2.60;2.40;;;10.30;37.90;;;;;;5914328;24;20445;-87
2022/03/07 14:58:38;;;;;;;2.50;2.30;;;10.20;38.40;;;;;;5936690;24;20417;-84
2022/03/07 15:01:24;;;;;;;3.30;3.00;;;10.20;38.20;;;;;;5937169;24;20433;-85
2022/03/07 15:03:58;;;;;;;3.80;2.27;;;10.10;37.90;;;;;;5937648;24;20422;-87
2022/03/07 15:06:37;;;;;;;3.70;2.77;;;10.40;37.90;;;;;;5905172;24;20504;-85